sensor_id;sensor_type;location;lat;lon;timestamp;P1;durP1;ratioP1;P2;durP2;ratioP2
73557;SDS011;61829;53.286;10.434;2023-09-08T00:00:39;5.70;;;4.10;;
73557;SDS011;61829;53.286;10.434;2023-09-08T00:03:25;6.50;;;4.00;;
73557;SDS011;61829;53.286;10.434;2023-09-08T00:05:51;7.07;;;4.38;;
73557;SDS011;61829;53.286;10.434;2023-09-08T00:08:17;6.60;;;4.32;;
73557;SDS011;61829;53.286;10.434;2023-09-08T00:10:43;7.63;;;4.15;;
73557;SDS011;61829;53.286;10.434;2023-09-08T00:13:09;8.25;;;4.30;;
73557;SDS011;61829;53.286;10.434;2023-09-08T00:15:36;6.05;;;4.18;;
73557;SDS011;61829;53.286;10.434;2023-09-08T00:18:02;8.70;;;5.22;;
73557;SDS011;61829;53.286;10.434;2023-09-08T00:20:29;6.57;;;4.50;;
73557;SDS011;61829;53.286;10.434;2023-09-08T00:22:55;7.10;;;4.53;;
73557;SDS011;61829;53.286;10.434;2023-09-08T00:25:21;6.43;;;4.68;;
73557;SDS011;61829;53.286;10.434;2023-09-08T00:27:47;7.40;;;4.97;;
73557;SDS011;61829;53.286;10.434;2023-09-08T00:30:13;6.55;;;4.45;;
73557;SDS011;61829;53.286;10.434;2023-09-08T00:32:39;6.18;;;4.53;;
73557;SDS011;61829;53.286;10.434;2023-09-08T00:35:06;10.68;;;5.00;;
73557;SDS011;61829;53.286;10.434;2023-09-08T00:37:33;10.18;;;5.60;;
73557;SDS011;61829;53.286;10.434;2023-09-08T00:39:59;6.30;;;4.65;;
73557;SDS011;61829;53.286;10.434;2023-09-08T00:42:25;7.75;;;5.15;;
73557;SDS011;61829;53.286;10.434;2023-09-08T00:44:51;7.07;;;4.90;;
73557;SDS011;61829;53.286;10.434;2023-09-08T00:47:17;7.97;;;5.32;;
73557;SDS011;61829;53.286;10.434;2023-09-08T00:52:09;7.57;;;4.35;;
73557;SDS011;61829;53.286;10.434;2023-09-08T00:54:36;6.97;;;5.20;;
73557;SDS011;61829;53.286;10.434;2023-09-08T00:57:02;6.88;;;4.70;;
73557;SDS011;61829;53.286;10.434;2023-09-08T00:59:32;8.43;;;5.20;;
73557;SDS011;61829;53.286;10.434;2023-09-08T01:02:16;8.07;;;5.00;;
73557;SDS011;61829;53.286;10.434;2023-09-08T01:04:43;6.90;;;5.13;;
73557;SDS011;61829;53.286;10.434;2023-09-08T01:07:11;6.82;;;4.65;;
73557;SDS011;61829;53.286;10.434;2023-09-08T01:09:37;7.50;;;5.00;;
73557;SDS011;61829;53.286;10.434;2023-09-08T01:14:33;6.65;;;5.05;;
73557;SDS011;61829;53.286;10.434;2023-09-08T01:16:59;8.48;;;4.88;;
73557;SDS011;61829;53.286;10.434;2023-09-08T01:19:25;7.22;;;5.18;;
73557;SDS011;61829;53.286;10.434;2023-09-08T01:27:35;6.93;;;4.60;;
73557;SDS011;61829;53.286;10.434;2023-09-08T01:30:03;8.13;;;5.30;;
73557;SDS011;61829;53.286;10.434;2023-09-08T01:32:31;8.20;;;5.85;;
73557;SDS011;61829;53.286;10.434;2023-09-08T01:34:58;7.45;;;5.40;;
73557;SDS011;61829;53.286;10.434;2023-09-08T01:37:26;7.93;;;5.85;;
73557;SDS011;61829;53.286;10.434;2023-09-08T01:39:52;8.00;;;5.65;;
73557;SDS011;61829;53.286;10.434;2023-09-08T01:42:18;7.68;;;5.47;;
73557;SDS011;61829;53.286;10.434;2023-09-08T01:44:44;7.05;;;5.30;;
73557;SDS011;61829;53.286;10.434;2023-09-08T01:47:10;9.02;;;5.40;;
73557;SDS011;61829;53.286;10.434;2023-09-08T01:49:36;9.00;;;5.80;;
73557;SDS011;61829;53.286;10.434;2023-09-08T01:52:03;8.30;;;5.72;;
73557;SDS011;61829;53.286;10.434;2023-09-08T01:56:56;9.00;;;5.50;;
73557;SDS011;61829;53.286;10.434;2023-09-08T02:02:19;7.25;;;4.95;;
73557;SDS011;61829;53.286;10.434;2023-09-08T02:04:45;7.63;;;5.80;;
73557;SDS011;61829;53.286;10.434;2023-09-08T02:07:12;8.43;;;5.88;;
73557;SDS011;61829;53.286;10.434;2023-09-08T02:09:38;7.43;;;5.57;;
73557;SDS011;61829;53.286;10.434;2023-09-08T02:12:04;7.93;;;5.32;;
73557;SDS011;61829;53.286;10.434;2023-09-08T02:14:31;8.23;;;5.78;;
73557;SDS011;61829;53.286;10.434;2023-09-08T02:16:57;8.13;;;6.15;;
73557;SDS011;61829;53.286;10.434;2023-09-08T02:19:23;8.45;;;5.55;;
73557;SDS011;61829;53.286;10.434;2023-09-08T02:21:49;8.65;;;5.95;;
73557;SDS011;61829;53.286;10.434;2023-09-08T02:24:16;8.43;;;5.72;;
73557;SDS011;61829;53.286;10.434;2023-09-08T02:26:41;8.05;;;5.68;;
73557;SDS011;61829;53.286;10.434;2023-09-08T02:29:08;7.85;;;5.22;;
73557;SDS011;61829;53.286;10.434;2023-09-08T02:31:34;8.27;;;5.80;;
73557;SDS011;61829;53.286;10.434;2023-09-08T02:34:00;9.80;;;5.28;;
73557;SDS011;61829;53.286;10.434;2023-09-08T02:36:26;7.93;;;5.28;;
73557;SDS011;61829;53.286;10.434;2023-09-08T02:38:53;9.13;;;5.45;;
73557;SDS011;61829;53.286;10.434;2023-09-08T02:41:19;7.70;;;5.60;;
73557;SDS011;61829;53.286;10.434;2023-09-08T02:43:46;7.53;;;5.40;;
73557;SDS011;61829;53.286;10.434;2023-09-08T02:46:13;8.88;;;5.35;;
73557;SDS011;61829;53.286;10.434;2023-09-08T02:48:39;6.65;;;5.35;;
73557;SDS011;61829;53.286;10.434;2023-09-08T02:51:08;7.75;;;5.47;;
73557;SDS011;61829;53.286;10.434;2023-09-08T02:53:34;8.63;;;5.97;;
73557;SDS011;61829;53.286;10.434;2023-09-08T02:56:02;9.57;;;5.90;;
73557;SDS011;61829;53.286;10.434;2023-09-08T02:58:29;9.43;;;6.10;;
73557;SDS011;61829;53.286;10.434;2023-09-08T03:00:56;8.80;;;5.85;;
73557;SDS011;61829;53.286;10.434;2023-09-08T03:03:22;7.38;;;5.68;;
73557;SDS011;61829;53.286;10.434;2023-09-08T03:05:48;10.50;;;6.25;;
73557;SDS011;61829;53.286;10.434;2023-09-08T03:08:30;9.20;;;6.15;;
73557;SDS011;61829;53.286;10.434;2023-09-08T03:10:56;8.15;;;6.20;;
73557;SDS011;61829;53.286;10.434;2023-09-08T03:13:23;10.73;;;7.05;;
73557;SDS011;61829;53.286;10.434;2023-09-08T03:15:50;9.00;;;5.97;;
73557;SDS011;61829;53.286;10.434;2023-09-08T03:18:16;9.00;;;6.43;;
73557;SDS011;61829;53.286;10.434;2023-09-08T03:20:42;8.95;;;6.32;;
73557;SDS011;61829;53.286;10.434;2023-09-08T03:23:09;11.55;;;6.88;;
73557;SDS011;61829;53.286;10.434;2023-09-08T03:25:35;11.23;;;7.32;;
73557;SDS011;61829;53.286;10.434;2023-09-08T03:28:01;11.82;;;7.10;;
73557;SDS011;61829;53.286;10.434;2023-09-08T03:30:27;9.57;;;6.60;;
73557;SDS011;61829;53.286;10.434;2023-09-08T03:32:53;11.65;;;6.90;;
73557;SDS011;61829;53.286;10.434;2023-09-08T03:35:19;9.18;;;6.75;;
73557;SDS011;61829;53.286;10.434;2023-09-08T03:37:45;12.38;;;6.97;;
73557;SDS011;61829;53.286;10.434;2023-09-08T03:40:11;8.63;;;6.50;;
73557;SDS011;61829;53.286;10.434;2023-09-08T03:42:37;8.85;;;6.20;;
73557;SDS011;61829;53.286;10.434;2023-09-08T03:45:03;8.98;;;6.78;;
73557;SDS011;61829;53.286;10.434;2023-09-08T03:47:30;11.30;;;6.70;;
73557;SDS011;61829;53.286;10.434;2023-09-08T03:49:56;9.02;;;6.80;;
73557;SDS011;61829;53.286;10.434;2023-09-08T03:52:22;10.68;;;7.07;;
73557;SDS011;61829;53.286;10.434;2023-09-08T03:54:48;9.18;;;6.80;;
73557;SDS011;61829;53.286;10.434;2023-09-08T03:57:14;10.23;;;6.88;;
73557;SDS011;61829;53.286;10.434;2023-09-08T03:59:40;8.82;;;6.43;;
73557;SDS011;61829;53.286;10.434;2023-09-08T04:02:07;10.88;;;6.72;;
73557;SDS011;61829;53.286;10.434;2023-09-08T04:04:32;9.63;;;6.90;;
73557;SDS011;61829;53.286;10.434;2023-09-08T04:06:59;9.73;;;6.93;;
73557;SDS011;61829;53.286;10.434;2023-09-08T04:09:25;10.90;;;7.45;;
73557;SDS011;61829;53.286;10.434;2023-09-08T04:11:51;10.40;;;6.93;;
73557;SDS011;61829;53.286;10.434;2023-09-08T04:14:17;9.13;;;6.97;;
73557;SDS011;61829;53.286;10.434;2023-09-08T04:16:43;10.38;;;7.38;;
73557;SDS011;61829;53.286;10.434;2023-09-08T04:19:09;12.27;;;7.45;;
73557;SDS011;61829;53.286;10.434;2023-09-08T04:21:35;10.35;;;7.25;;
73557;SDS011;61829;53.286;10.434;2023-09-08T04:24:01;10.77;;;7.30;;
73557;SDS011;61829;53.286;10.434;2023-09-08T04:26:27;10.00;;;7.40;;
73557;SDS011;61829;53.286;10.434;2023-09-08T04:28:53;12.63;;;7.13;;
73557;SDS011;61829;53.286;10.434;2023-09-08T04:31:19;9.88;;;7.00;;
73557;SDS011;61829;53.286;10.434;2023-09-08T04:33:47;11.02;;;7.70;;
73557;SDS011;61829;53.286;10.434;2023-09-08T04:36:13;9.95;;;7.45;;
73557;SDS011;61829;53.286;10.434;2023-09-08T04:41:07;10.35;;;6.82;;
73557;SDS011;61829;53.286;10.434;2023-09-08T04:43:33;10.30;;;7.82;;
73557;SDS011;61829;53.286;10.434;2023-09-08T04:45:59;12.77;;;7.60;;
73557;SDS011;61829;53.286;10.434;2023-09-08T04:48:25;11.55;;;7.57;;
73557;SDS011;61829;53.286;10.434;2023-09-08T04:50:51;12.65;;;8.23;;
73557;SDS011;61829;53.286;10.434;2023-09-08T04:53:17;13.18;;;8.48;;
73557;SDS011;61829;53.286;10.434;2023-09-08T04:55:43;11.55;;;7.45;;
73557;SDS011;61829;53.286;10.434;2023-09-08T04:58:09;11.98;;;8.10;;
73557;SDS011;61829;53.286;10.434;2023-09-08T05:00:37;9.57;;;7.35;;
73557;SDS011;61829;53.286;10.434;2023-09-08T05:03:04;11.48;;;8.07;;
73557;SDS011;61829;53.286;10.434;2023-09-08T05:05:30;10.00;;;7.68;;
73557;SDS011;61829;53.286;10.434;2023-09-08T05:07:56;11.55;;;7.63;;
73557;SDS011;61829;53.286;10.434;2023-09-08T05:10:23;9.90;;;7.03;;
73557;SDS011;61829;53.286;10.434;2023-09-08T05:12:49;10.63;;;8.13;;
73557;SDS011;61829;53.286;10.434;2023-09-08T05:15:15;11.77;;;7.85;;
73557;SDS011;61829;53.286;10.434;2023-09-08T05:17:42;11.48;;;8.02;;
73557;SDS011;61829;53.286;10.434;2023-09-08T05:20:09;10.73;;;7.70;;
73557;SDS011;61829;53.286;10.434;2023-09-08T05:22:35;11.15;;;7.97;;
73557;SDS011;61829;53.286;10.434;2023-09-08T05:27:28;11.93;;;7.07;;
73557;SDS011;61829;53.286;10.434;2023-09-08T05:29:54;11.52;;;7.47;;
73557;SDS011;61829;53.286;10.434;2023-09-08T05:32:20;13.93;;;8.40;;
73557;SDS011;61829;53.286;10.434;2023-09-08T05:34:46;11.73;;;8.10;;
73557;SDS011;61829;53.286;10.434;2023-09-08T05:37:12;11.50;;;7.93;;
73557;SDS011;61829;53.286;10.434;2023-09-08T05:39:38;10.52;;;7.97;;
73557;SDS011;61829;53.286;10.434;2023-09-08T05:42:04;9.18;;;7.05;;
73557;SDS011;61829;53.286;10.434;2023-09-08T05:44:30;9.88;;;6.95;;
73557;SDS011;61829;53.286;10.434;2023-09-08T05:46:56;9.20;;;6.90;;
73557;SDS011;61829;53.286;10.434;2023-09-08T05:49:22;12.90;;;7.07;;
73557;SDS011;61829;53.286;10.434;2023-09-08T05:51:50;10.07;;;6.28;;
73557;SDS011;61829;53.286;10.434;2023-09-08T05:54:16;8.48;;;6.32;;
73557;SDS011;61829;53.286;10.434;2023-09-08T05:56:42;8.75;;;6.55;;
73557;SDS011;61829;53.286;10.434;2023-09-08T05:59:08;8.25;;;5.85;;
73557;SDS011;61829;53.286;10.434;2023-09-08T06:01:34;8.57;;;6.00;;
73557;SDS011;61829;53.286;10.434;2023-09-08T06:04:02;9.77;;;6.00;;
73557;SDS011;61829;53.286;10.434;2023-09-08T06:06:28;8.73;;;5.60;;
73557;SDS011;61829;53.286;10.434;2023-09-08T06:08:54;9.45;;;5.65;;
73557;SDS011;61829;53.286;10.434;2023-09-08T06:11:20;8.38;;;5.93;;
73557;SDS011;61829;53.286;10.434;2023-09-08T06:13:46;8.35;;;5.57;;
73557;SDS011;61829;53.286;10.434;2023-09-08T06:16:13;8.93;;;5.93;;
73557;SDS011;61829;53.286;10.434;2023-09-08T06:18:39;7.18;;;5.78;;
73557;SDS011;61829;53.286;10.434;2023-09-08T06:21:09;8.80;;;5.65;;
73557;SDS011;61829;53.286;10.434;2023-09-08T06:23:35;9.68;;;5.65;;
73557;SDS011;61829;53.286;10.434;2023-09-08T06:26:01;10.55;;;6.57;;
73557;SDS011;61829;53.286;10.434;2023-09-08T06:28:27;7.78;;;5.47;;
73557;SDS011;61829;53.286;10.434;2023-09-08T06:30:54;9.23;;;5.40;;
73557;SDS011;61829;53.286;10.434;2023-09-08T06:33:21;6.50;;;5.20;;
73557;SDS011;61829;53.286;10.434;2023-09-08T06:36:00;8.52;;;5.75;;
73557;SDS011;61829;53.286;10.434;2023-09-08T06:38:30;7.88;;;6.07;;
73557;SDS011;61829;53.286;10.434;2023-09-08T06:43:23;7.63;;;5.30;;
73557;SDS011;61829;53.286;10.434;2023-09-08T06:45:49;7.57;;;5.30;;
73557;SDS011;61829;53.286;10.434;2023-09-08T06:48:15;7.90;;;5.57;;
73557;SDS011;61829;53.286;10.434;2023-09-08T06:50:42;7.28;;;5.32;;
73557;SDS011;61829;53.286;10.434;2023-09-08T06:53:08;8.93;;;5.35;;
73557;SDS011;61829;53.286;10.434;2023-09-08T06:55:35;9.00;;;5.68;;
73557;SDS011;61829;53.286;10.434;2023-09-08T06:58:00;9.80;;;5.65;;
73557;SDS011;61829;53.286;10.434;2023-09-08T07:00:27;9.15;;;5.53;;
73557;SDS011;61829;53.286;10.434;2023-09-08T07:02:54;12.38;;;5.53;;
73557;SDS011;61829;53.286;10.434;2023-09-08T07:05:20;9.55;;;5.38;;
73557;SDS011;61829;53.286;10.434;2023-09-08T07:07:46;11.15;;;5.38;;
73557;SDS011;61829;53.286;10.434;2023-09-08T07:10:13;8.18;;;6.00;;
73557;SDS011;61829;53.286;10.434;2023-09-08T07:12:39;7.72;;;5.65;;
73557;SDS011;61829;53.286;10.434;2023-09-08T07:15:05;8.63;;;5.22;;
73557;SDS011;61829;53.286;10.434;2023-09-08T07:17:31;9.85;;;5.75;;
73557;SDS011;61829;53.286;10.434;2023-09-08T07:19:58;8.77;;;5.65;;
73557;SDS011;61829;53.286;10.434;2023-09-08T07:22:23;9.10;;;5.65;;
73557;SDS011;61829;53.286;10.434;2023-09-08T07:24:50;7.57;;;5.38;;
73557;SDS011;61829;53.286;10.434;2023-09-08T07:27:15;7.22;;;4.82;;
73557;SDS011;61829;53.286;10.434;2023-09-08T07:29:42;7.13;;;5.43;;
73557;SDS011;61829;53.286;10.434;2023-09-08T07:32:08;7.97;;;5.43;;
73557;SDS011;61829;53.286;10.434;2023-09-08T07:34:34;8.73;;;5.53;;
73557;SDS011;61829;53.286;10.434;2023-09-08T07:37:00;6.68;;;5.20;;
73557;SDS011;61829;53.286;10.434;2023-09-08T07:39:27;8.73;;;5.60;;
73557;SDS011;61829;53.286;10.434;2023-09-08T07:41:53;7.93;;;5.00;;
73557;SDS011;61829;53.286;10.434;2023-09-08T07:44:22;8.20;;;5.45;;
73557;SDS011;61829;53.286;10.434;2023-09-08T07:46:47;9.23;;;5.20;;
73557;SDS011;61829;53.286;10.434;2023-09-08T07:49:16;8.45;;;4.97;;
73557;SDS011;61829;53.286;10.434;2023-09-08T07:51:46;8.38;;;5.18;;
73557;SDS011;61829;53.286;10.434;2023-09-08T07:54:13;6.35;;;4.90;;
73557;SDS011;61829;53.286;10.434;2023-09-08T07:56:39;8.25;;;4.75;;
73557;SDS011;61829;53.286;10.434;2023-09-08T07:59:08;8.98;;;5.07;;
73557;SDS011;61829;53.286;10.434;2023-09-08T08:01:34;7.85;;;4.80;;
73557;SDS011;61829;53.286;10.434;2023-09-08T08:04:00;8.93;;;5.75;;
73557;SDS011;61829;53.286;10.434;2023-09-08T08:06:29;7.45;;;4.85;;
73557;SDS011;61829;53.286;10.434;2023-09-08T08:08:55;9.30;;;5.38;;
73557;SDS011;61829;53.286;10.434;2023-09-08T08:11:23;10.32;;;5.55;;
73557;SDS011;61829;53.286;10.434;2023-09-08T08:13:49;7.82;;;4.85;;
73557;SDS011;61829;53.286;10.434;2023-09-08T08:16:15;7.78;;;5.00;;
73557;SDS011;61829;53.286;10.434;2023-09-08T08:18:41;9.07;;;5.22;;
73557;SDS011;61829;53.286;10.434;2023-09-08T08:21:07;7.63;;;4.93;;
73557;SDS011;61829;53.286;10.434;2023-09-08T08:23:34;7.97;;;5.05;;
73557;SDS011;61829;53.286;10.434;2023-09-08T08:26:01;10.50;;;5.88;;
73557;SDS011;61829;53.286;10.434;2023-09-08T08:28:28;8.40;;;4.93;;
73557;SDS011;61829;53.286;10.434;2023-09-08T08:30:54;8.07;;;5.07;;
73557;SDS011;61829;53.286;10.434;2023-09-08T08:33:21;6.90;;;4.88;;
73557;SDS011;61829;53.286;10.434;2023-09-08T08:35:48;6.40;;;4.60;;
73557;SDS011;61829;53.286;10.434;2023-09-08T08:38:17;7.22;;;5.10;;
73557;SDS011;61829;53.286;10.434;2023-09-08T08:40:44;7.93;;;5.35;;
73557;SDS011;61829;53.286;10.434;2023-09-08T08:43:10;8.43;;;5.20;;
73557;SDS011;61829;53.286;10.434;2023-09-08T08:45:37;8.23;;;5.13;;
73557;SDS011;61829;53.286;10.434;2023-09-08T08:48:08;6.65;;;4.60;;
73557;SDS011;61829;53.286;10.434;2023-09-08T08:50:35;7.85;;;4.65;;
73557;SDS011;61829;53.286;10.434;2023-09-08T08:53:04;6.40;;;4.50;;
73557;SDS011;61829;53.286;10.434;2023-09-08T08:55:32;7.82;;;4.65;;
73557;SDS011;61829;53.286;10.434;2023-09-08T08:58:04;6.68;;;4.72;;
73557;SDS011;61829;53.286;10.434;2023-09-08T09:00:33;8.43;;;4.22;;
73557;SDS011;61829;53.286;10.434;2023-09-08T09:03:03;5.45;;;3.97;;
73557;SDS011;61829;53.286;10.434;2023-09-08T09:05:31;8.38;;;4.80;;
73557;SDS011;61829;53.286;10.434;2023-09-08T09:08:01;6.10;;;4.53;;
73557;SDS011;61829;53.286;10.434;2023-09-08T09:10:30;10.63;;;4.88;;
73557;SDS011;61829;53.286;10.434;2023-09-08T09:12:57;7.70;;;4.78;;
73557;SDS011;61829;53.286;10.434;2023-09-08T09:15:30;8.27;;;5.07;;
73557;SDS011;61829;53.286;10.434;2023-09-08T09:18:07;7.78;;;4.50;;
73557;SDS011;61829;53.286;10.434;2023-09-08T09:20:33;6.28;;;4.32;;
73557;SDS011;61829;53.286;10.434;2023-09-08T09:23:01;6.30;;;4.45;;
73557;SDS011;61829;53.286;10.434;2023-09-08T09:28:29;8.52;;;4.40;;
73557;SDS011;61829;53.286;10.434;2023-09-08T09:30:55;7.22;;;4.90;;
73557;SDS011;61829;53.286;10.434;2023-09-08T09:33:22;8.32;;;4.63;;
73557;SDS011;61829;53.286;10.434;2023-09-08T09:35:52;6.50;;;4.75;;
73557;SDS011;61829;53.286;10.434;2023-09-08T09:38:20;6.47;;;4.18;;
73557;SDS011;61829;53.286;10.434;2023-09-08T09:40:47;6.82;;;3.95;;
73557;SDS011;61829;53.286;10.434;2023-09-08T09:43:14;8.57;;;4.20;;
73557;SDS011;61829;53.286;10.434;2023-09-08T09:45:42;7.18;;;4.43;;
73557;SDS011;61829;53.286;10.434;2023-09-08T09:48:09;5.70;;;3.92;;
73557;SDS011;61829;53.286;10.434;2023-09-08T09:50:37;6.65;;;4.13;;
73557;SDS011;61829;53.286;10.434;2023-09-08T09:53:09;7.20;;;3.85;;
73557;SDS011;61829;53.286;10.434;2023-09-08T09:55:37;6.05;;;4.60;;
73557;SDS011;61829;53.286;10.434;2023-09-08T09:58:07;6.03;;;3.92;;
73557;SDS011;61829;53.286;10.434;2023-09-08T10:00:36;6.00;;;3.95;;
73557;SDS011;61829;53.286;10.434;2023-09-08T10:03:06;8.25;;;4.85;;
73557;SDS011;61829;53.286;10.434;2023-09-08T10:05:32;6.80;;;4.35;;
73557;SDS011;61829;53.286;10.434;2023-09-08T10:07:59;6.30;;;4.40;;
73557;SDS011;61829;53.286;10.434;2023-09-08T10:10:26;7.40;;;4.47;;
73557;SDS011;61829;53.286;10.434;2023-09-08T10:12:57;7.65;;;4.13;;
73557;SDS011;61829;53.286;10.434;2023-09-08T10:15:27;6.55;;;3.85;;
73557;SDS011;61829;53.286;10.434;2023-09-08T10:17:56;6.35;;;4.28;;
73557;SDS011;61829;53.286;10.434;2023-09-08T10:20:26;6.65;;;4.15;;
73557;SDS011;61829;53.286;10.434;2023-09-08T10:22:56;7.53;;;3.80;;
73557;SDS011;61829;53.286;10.434;2023-09-08T10:25:45;7.28;;;4.15;;
73557;SDS011;61829;53.286;10.434;2023-09-08T10:28:20;5.72;;;4.13;;
73557;SDS011;61829;53.286;10.434;2023-09-08T10:30:48;5.10;;;3.90;;
73557;SDS011;61829;53.286;10.434;2023-09-08T10:33:15;7.22;;;4.22;;
73557;SDS011;61829;53.286;10.434;2023-09-08T10:35:42;6.03;;;3.90;;
73557;SDS011;61829;53.286;10.434;2023-09-08T10:38:42;7.30;;;3.95;;
73557;SDS011;61829;53.286;10.434;2023-09-08T10:43:56;6.03;;;3.90;;
73557;SDS011;61829;53.286;10.434;2023-09-08T10:46:33;5.63;;;3.67;;
73557;SDS011;61829;53.286;10.434;2023-09-08T10:49:06;4.68;;;3.55;;
73557;SDS011;61829;53.286;10.434;2023-09-08T10:51:35;6.28;;;3.92;;
73557;SDS011;61829;53.286;10.434;2023-09-08T10:54:02;8.23;;;3.90;;
73557;SDS011;61829;53.286;10.434;2023-09-08T10:57:02;6.07;;;3.90;;
73557;SDS011;61829;53.286;10.434;2023-09-08T10:59:28;7.38;;;3.88;;
73557;SDS011;61829;53.286;10.434;2023-09-08T11:01:55;7.18;;;3.90;;
73557;SDS011;61829;53.286;10.434;2023-09-08T11:04:21;6.15;;;3.55;;
73557;SDS011;61829;53.286;10.434;2023-09-08T11:06:51;5.93;;;3.25;;
73557;SDS011;61829;53.286;10.434;2023-09-08T11:09:17;6.07;;;3.40;;
73557;SDS011;61829;53.286;10.434;2023-09-08T11:11:44;6.05;;;3.85;;
73557;SDS011;61829;53.286;10.434;2023-09-08T11:14:11;5.20;;;3.75;;
73557;SDS011;61829;53.286;10.434;2023-09-08T11:19:03;6.18;;;3.53;;
73557;SDS011;61829;53.286;10.434;2023-09-08T11:21:30;4.93;;;2.95;;
73557;SDS011;61829;53.286;10.434;2023-09-08T11:24:01;4.85;;;3.50;;
73557;SDS011;61829;53.286;10.434;2023-09-08T11:26:32;7.07;;;3.67;;
73557;SDS011;61829;53.286;10.434;2023-09-08T11:29:00;4.80;;;3.30;;
73557;SDS011;61829;53.286;10.434;2023-09-08T11:31:26;6.93;;;3.95;;
73557;SDS011;61829;53.286;10.434;2023-09-08T11:33:54;6.13;;;3.65;;
73557;SDS011;61829;53.286;10.434;2023-09-08T11:36:21;6.07;;;3.60;;
73557;SDS011;61829;53.286;10.434;2023-09-08T11:38:48;4.90;;;3.40;;
73557;SDS011;61829;53.286;10.434;2023-09-08T11:41:14;4.85;;;3.47;;
73557;SDS011;61829;53.286;10.434;2023-09-08T11:43:41;5.25;;;3.40;;
73557;SDS011;61829;53.286;10.434;2023-09-08T11:46:07;5.22;;;3.80;;
73557;SDS011;61829;53.286;10.434;2023-09-08T11:48:33;6.25;;;3.55;;
73557;SDS011;61829;53.286;10.434;2023-09-08T11:51:00;7.43;;;3.65;;
73557;SDS011;61829;53.286;10.434;2023-09-08T11:53:26;5.57;;;3.42;;
73557;SDS011;61829;53.286;10.434;2023-09-08T11:55:53;6.53;;;3.47;;
73557;SDS011;61829;53.286;10.434;2023-09-08T11:58:19;5.35;;;3.47;;
73557;SDS011;61829;53.286;10.434;2023-09-08T12:00:46;4.93;;;3.30;;
73557;SDS011;61829;53.286;10.434;2023-09-08T12:03:15;4.80;;;3.25;;
73557;SDS011;61829;53.286;10.434;2023-09-08T12:05:42;5.20;;;3.30;;
73557;SDS011;61829;53.286;10.434;2023-09-08T12:08:10;5.18;;;3.60;;
73557;SDS011;61829;53.286;10.434;2023-09-08T12:10:40;4.78;;;3.28;;
73557;SDS011;61829;53.286;10.434;2023-09-08T12:13:08;5.70;;;3.60;;
73557;SDS011;61829;53.286;10.434;2023-09-08T12:15:36;4.95;;;3.33;;
73557;SDS011;61829;53.286;10.434;2023-09-08T12:18:04;7.32;;;3.67;;
73557;SDS011;61829;53.286;10.434;2023-09-08T12:20:32;5.40;;;3.53;;
73557;SDS011;61829;53.286;10.434;2023-09-08T12:23:02;6.43;;;3.70;;
73557;SDS011;61829;53.286;10.434;2023-09-08T12:25:47;6.25;;;3.53;;
73557;SDS011;61829;53.286;10.434;2023-09-08T12:28:18;4.97;;;3.15;;
73557;SDS011;61829;53.286;10.434;2023-09-08T12:30:50;6.82;;;3.83;;
73557;SDS011;61829;53.286;10.434;2023-09-08T12:33:19;6.13;;;3.40;;
73557;SDS011;61829;53.286;10.434;2023-09-08T12:35:45;5.40;;;3.38;;
73557;SDS011;61829;53.286;10.434;2023-09-08T12:38:14;5.05;;;3.50;;
73557;SDS011;61829;53.286;10.434;2023-09-08T12:40:40;4.85;;;3.72;;
73557;SDS011;61829;53.286;10.434;2023-09-08T12:43:06;7.55;;;3.88;;
73557;SDS011;61829;53.286;10.434;2023-09-08T12:45:32;5.50;;;3.55;;
73557;SDS011;61829;53.286;10.434;2023-09-08T12:47:59;6.95;;;3.58;;
73557;SDS011;61829;53.286;10.434;2023-09-08T12:50:28;4.85;;;3.45;;
73557;SDS011;61829;53.286;10.434;2023-09-08T12:55:20;5.30;;;3.55;;
73557;SDS011;61829;53.286;10.434;2023-09-08T12:57:46;5.22;;;3.67;;
73557;SDS011;61829;53.286;10.434;2023-09-08T13:00:13;5.68;;;3.58;;
73557;SDS011;61829;53.286;10.434;2023-09-08T13:02:40;8.68;;;3.75;;
73557;SDS011;61829;53.286;10.434;2023-09-08T13:05:07;7.45;;;3.42;;
73557;SDS011;61829;53.286;10.434;2023-09-08T13:07:33;4.97;;;3.53;;
73557;SDS011;61829;53.286;10.434;2023-09-08T13:09:59;5.85;;;3.88;;
73557;SDS011;61829;53.286;10.434;2023-09-08T13:12:26;5.78;;;3.90;;
73557;SDS011;61829;53.286;10.434;2023-09-08T13:14:52;4.95;;;3.72;;
73557;SDS011;61829;53.286;10.434;2023-09-08T13:17:18;5.53;;;3.90;;
73557;SDS011;61829;53.286;10.434;2023-09-08T13:19:44;4.60;;;3.20;;
73557;SDS011;61829;53.286;10.434;2023-09-08T13:24:36;5.05;;;3.65;;
73557;SDS011;61829;53.286;10.434;2023-09-08T13:27:03;7.25;;;3.72;;
73557;SDS011;61829;53.286;10.434;2023-09-08T13:31:55;7.90;;;3.75;;
73557;SDS011;61829;53.286;10.434;2023-09-08T13:34:23;5.28;;;3.65;;
73557;SDS011;61829;53.286;10.434;2023-09-08T13:39:15;7.93;;;3.70;;
73557;SDS011;61829;53.286;10.434;2023-09-08T13:41:46;5.85;;;3.55;;
73557;SDS011;61829;53.286;10.434;2023-09-08T13:44:12;9.13;;;3.63;;
73557;SDS011;61829;53.286;10.434;2023-09-08T13:46:39;5.18;;;3.45;;
73557;SDS011;61829;53.286;10.434;2023-09-08T13:49:05;5.93;;;3.83;;
73557;SDS011;61829;53.286;10.434;2023-09-08T13:53:57;7.22;;;3.38;;
73557;SDS011;61829;53.286;10.434;2023-09-08T13:56:24;5.50;;;3.92;;
73557;SDS011;61829;53.286;10.434;2023-09-08T13:58:50;5.70;;;3.38;;
73557;SDS011;61829;53.286;10.434;2023-09-08T14:01:16;5.38;;;3.88;;
73557;SDS011;61829;53.286;10.434;2023-09-08T14:03:42;5.50;;;3.65;;
73557;SDS011;61829;53.286;10.434;2023-09-08T14:06:09;5.32;;;3.28;;
73557;SDS011;61829;53.286;10.434;2023-09-08T14:08:35;5.50;;;3.47;;
73557;SDS011;61829;53.286;10.434;2023-09-08T14:11:03;5.38;;;3.58;;
73557;SDS011;61829;53.286;10.434;2023-09-08T14:13:29;5.07;;;3.55;;
73557;SDS011;61829;53.286;10.434;2023-09-08T14:15:56;6.25;;;4.00;;
73557;SDS011;61829;53.286;10.434;2023-09-08T14:18:22;6.95;;;3.65;;
73557;SDS011;61829;53.286;10.434;2023-09-08T14:20:48;5.80;;;3.47;;
73557;SDS011;61829;53.286;10.434;2023-09-08T14:23:14;6.00;;;3.70;;
73557;SDS011;61829;53.286;10.434;2023-09-08T14:25:40;5.60;;;3.47;;
73557;SDS011;61829;53.286;10.434;2023-09-08T14:28:07;5.53;;;3.72;;
73557;SDS011;61829;53.286;10.434;2023-09-08T14:30:33;7.20;;;3.67;;
73557;SDS011;61829;53.286;10.434;2023-09-08T14:33:01;5.88;;;3.70;;
73557;SDS011;61829;53.286;10.434;2023-09-08T14:35:27;5.85;;;3.60;;
73557;SDS011;61829;53.286;10.434;2023-09-08T14:37:53;4.78;;;3.35;;
73557;SDS011;61829;53.286;10.434;2023-09-08T14:40:21;4.93;;;3.55;;
73557;SDS011;61829;53.286;10.434;2023-09-08T14:42:48;5.07;;;3.50;;
73557;SDS011;61829;53.286;10.434;2023-09-08T14:45:14;5.80;;;3.92;;
73557;SDS011;61829;53.286;10.434;2023-09-08T14:47:41;5.53;;;3.47;;
73557;SDS011;61829;53.286;10.434;2023-09-08T14:50:07;6.63;;;3.45;;
73557;SDS011;61829;53.286;10.434;2023-09-08T14:52:34;5.30;;;3.47;;
73557;SDS011;61829;53.286;10.434;2023-09-08T14:55:01;6.47;;;3.17;;
73557;SDS011;61829;53.286;10.434;2023-09-08T14:57:27;4.55;;;3.45;;
73557;SDS011;61829;53.286;10.434;2023-09-08T14:59:53;6.82;;;3.55;;
73557;SDS011;61829;53.286;10.434;2023-09-08T15:02:21;6.65;;;3.40;;
73557;SDS011;61829;53.286;10.434;2023-09-08T15:04:48;5.75;;;3.60;;
73557;SDS011;61829;53.286;10.434;2023-09-08T15:07:14;5.72;;;3.22;;
73557;SDS011;61829;53.286;10.434;2023-09-08T15:09:41;5.40;;;3.17;;
73557;SDS011;61829;53.286;10.434;2023-09-08T15:12:07;5.60;;;3.50;;
73557;SDS011;61829;53.286;10.434;2023-09-08T15:14:33;6.55;;;3.30;;
73557;SDS011;61829;53.286;10.434;2023-09-08T15:16:59;6.22;;;4.00;;